sensor_id;sensor_type;location;lat;lon;timestamp;P1;durP1;ratioP1;P2;durP2;ratioP2
29712;SDS011;16623;53.632;10.016;2023-01-28T00:01:17;5.70;;;2.58;;
29712;SDS011;16623;53.632;10.016;2023-01-28T00:03:43;6.68;;;3.92;;
29712;SDS011;16623;53.632;10.016;2023-01-28T00:06:11;4.32;;;2.22;;
29712;SDS011;16623;53.632;10.016;2023-01-28T00:08:38;6.05;;;2.35;;
29712;SDS011;16623;53.632;10.016;2023-01-28T00:11:05;5.07;;;2.28;;
29712;SDS011;16623;53.632;10.016;2023-01-28T00:13:32;4.45;;;1.92;;
29712;SDS011;16623;53.632;10.016;2023-01-28T00:15:59;5.13;;;2.33;;
29712;SDS011;16623;53.632;10.016;2023-01-28T00:18:26;6.00;;;2.53;;
29712;SDS011;16623;53.632;10.016;2023-01-28T00:20:59;7.80;;;2.90;;
29712;SDS011;16623;53.632;10.016;2023-01-28T00:23:25;4.85;;;2.40;;
29712;SDS011;16623;53.632;10.016;2023-01-28T00:25:52;5.43;;;2.35;;
29712;SDS011;16623;53.632;10.016;2023-01-28T00:28:18;7.68;;;2.33;;
29712;SDS011;16623;53.632;10.016;2023-01-28T00:30:45;5.85;;;2.53;;
29712;SDS011;16623;53.632;10.016;2023-01-28T00:33:10;5.25;;;2.78;;
29712;SDS011;16623;53.632;10.016;2023-01-28T00:35:36;7.68;;;2.65;;
29712;SDS011;16623;53.632;10.016;2023-01-28T00:38:01;7.40;;;2.50;;
29712;SDS011;16623;53.632;10.016;2023-01-28T00:40:28;4.13;;;2.45;;
29712;SDS011;16623;53.632;10.016;2023-01-28T00:42:54;6.72;;;2.60;;
29712;SDS011;16623;53.632;10.016;2023-01-28T00:45:19;5.57;;;2.30;;
29712;SDS011;16623;53.632;10.016;2023-01-28T00:47:45;7.93;;;2.53;;
29712;SDS011;16623;53.632;10.016;2023-01-28T00:50:12;5.00;;;2.80;;
29712;SDS011;16623;53.632;10.016;2023-01-28T00:52:38;9.45;;;3.08;;
29712;SDS011;16623;53.632;10.016;2023-01-28T00:55:04;5.25;;;3.25;;
29712;SDS011;16623;53.632;10.016;2023-01-28T00:57:30;6.53;;;3.55;;
29712;SDS011;16623;53.632;10.016;2023-01-28T00:59:56;10.27;;;2.63;;
29712;SDS011;16623;53.632;10.016;2023-01-28T01:02:21;5.38;;;2.45;;
29712;SDS011;16623;53.632;10.016;2023-01-28T01:04:47;5.70;;;2.72;;
29712;SDS011;16623;53.632;10.016;2023-01-28T01:07:26;7.50;;;2.83;;
29712;SDS011;16623;53.632;10.016;2023-01-28T01:10:05;4.30;;;2.50;;
29712;SDS011;16623;53.632;10.016;2023-01-28T01:12:32;7.28;;;2.30;;
29712;SDS011;16623;53.632;10.016;2023-01-28T01:14:58;6.13;;;2.30;;
29712;SDS011;16623;53.632;10.016;2023-01-28T01:17:24;10.82;;;2.58;;
29712;SDS011;16623;53.632;10.016;2023-01-28T01:19:49;7.65;;;2.75;;
29712;SDS011;16623;53.632;10.016;2023-01-28T01:22:15;7.40;;;3.30;;
29712;SDS011;16623;53.632;10.016;2023-01-28T01:24:40;8.32;;;2.55;;
29712;SDS011;16623;53.632;10.016;2023-01-28T01:27:06;4.93;;;2.35;;
29712;SDS011;16623;53.632;10.016;2023-01-28T01:29:31;7.22;;;2.78;;
29712;SDS011;16623;53.632;10.016;2023-01-28T01:31:58;7.78;;;2.75;;
29712;SDS011;16623;53.632;10.016;2023-01-28T01:34:24;8.95;;;2.63;;
29712;SDS011;16623;53.632;10.016;2023-01-28T01:36:49;6.80;;;2.92;;
29712;SDS011;16623;53.632;10.016;2023-01-28T01:39:15;5.75;;;2.88;;
29712;SDS011;16623;53.632;10.016;2023-01-28T01:41:41;8.27;;;2.40;;
29712;SDS011;16623;53.632;10.016;2023-01-28T01:44:46;4.35;;;2.33;;
29712;SDS011;16623;53.632;10.016;2023-01-28T01:47:10;2.97;;;2.50;;
29712;SDS011;16623;53.632;10.016;2023-01-28T01:49:37;6.13;;;2.72;;
29712;SDS011;16623;53.632;10.016;2023-01-28T01:52:05;9.23;;;3.20;;
29712;SDS011;16623;53.632;10.016;2023-01-28T01:54:36;5.95;;;2.85;;
29712;SDS011;16623;53.632;10.016;2023-01-28T01:57:05;4.55;;;2.47;;
29712;SDS011;16623;53.632;10.016;2023-01-28T01:59:33;6.13;;;2.85;;
29712;SDS011;16623;53.632;10.016;2023-01-28T02:02:01;5.07;;;2.78;;
29712;SDS011;16623;53.632;10.016;2023-01-28T02:04:36;6.32;;;2.40;;
29712;SDS011;16623;53.632;10.016;2023-01-28T02:09:30;5.72;;;2.70;;
29712;SDS011;16623;53.632;10.016;2023-01-28T02:14:35;12.98;;;2.50;;
29712;SDS011;16623;53.632;10.016;2023-01-28T02:17:06;3.78;;;2.42;;
29712;SDS011;16623;53.632;10.016;2023-01-28T02:19:39;4.90;;;2.47;;
29712;SDS011;16623;53.632;10.016;2023-01-28T02:22:18;5.38;;;2.40;;
29712;SDS011;16623;53.632;10.016;2023-01-28T02:31:03;5.43;;;2.50;;
29712;SDS011;16623;53.632;10.016;2023-01-28T02:33:41;6.68;;;2.63;;
29712;SDS011;16623;53.632;10.016;2023-01-28T02:36:26;5.03;;;1.67;;
29712;SDS011;16623;53.632;10.016;2023-01-28T02:39:07;3.17;;;1.40;;
29712;SDS011;16623;53.632;10.016;2023-01-28T02:41:41;5.55;;;2.30;;
29712;SDS011;16623;53.632;10.016;2023-01-28T02:44:15;7.18;;;2.42;;
29712;SDS011;16623;53.632;10.016;2023-01-28T02:46:41;4.32;;;2.50;;
29712;SDS011;16623;53.632;10.016;2023-01-28T02:49:26;5.07;;;2.75;;
29712;SDS011;16623;53.632;10.016;2023-01-28T02:55:20;6.68;;;2.58;;
29712;SDS011;16623;53.632;10.016;2023-01-28T03:00:43;7.97;;;2.85;;
29712;SDS011;16623;53.632;10.016;2023-01-28T03:03:28;4.95;;;2.05;;
29712;SDS011;16623;53.632;10.016;2023-01-28T03:06:07;12.45;;;2.47;;
29712;SDS011;16623;53.632;10.016;2023-01-28T03:08:38;6.45;;;2.53;;
29712;SDS011;16623;53.632;10.016;2023-01-28T03:11:35;6.63;;;2.25;;
29712;SDS011;16623;53.632;10.016;2023-01-28T03:14:23;7.35;;;2.47;;
29712;SDS011;16623;53.632;10.016;2023-01-28T03:17:11;6.65;;;2.90;;
29712;SDS011;16623;53.632;10.016;2023-01-28T03:20:21;8.02;;;2.67;;
29712;SDS011;16623;53.632;10.016;2023-01-28T03:23:09;3.70;;;2.67;;
29712;SDS011;16623;53.632;10.016;2023-01-28T03:25:57;2.85;;;2.25;;
29712;SDS011;16623;53.632;10.016;2023-01-28T03:28:44;5.57;;;2.50;;
29712;SDS011;16623;53.632;10.016;2023-01-28T03:31:31;3.72;;;2.60;;
29712;SDS011;16623;53.632;10.016;2023-01-28T03:34:16;5.35;;;2.30;;
29712;SDS011;16623;53.632;10.016;2023-01-28T03:37:03;9.07;;;2.80;;
29712;SDS011;16623;53.632;10.016;2023-01-28T03:39:29;5.90;;;2.70;;
29712;SDS011;16623;53.632;10.016;2023-01-28T03:41:59;4.70;;;2.45;;
29712;SDS011;16623;53.632;10.016;2023-01-28T03:44:25;5.15;;;3.03;;
29712;SDS011;16623;53.632;10.016;2023-01-28T03:47:10;4.22;;;2.63;;
29712;SDS011;16623;53.632;10.016;2023-01-28T03:49:40;5.47;;;2.55;;
29712;SDS011;16623;53.632;10.016;2023-01-28T03:52:06;4.15;;;2.20;;
29712;SDS011;16623;53.632;10.016;2023-01-28T03:54:32;7.55;;;3.00;;
29712;SDS011;16623;53.632;10.016;2023-01-28T03:56:58;6.35;;;2.30;;
29712;SDS011;16623;53.632;10.016;2023-01-28T03:59:23;10.45;;;2.80;;
29712;SDS011;16623;53.632;10.016;2023-01-28T04:01:49;4.22;;;2.30;;
29712;SDS011;16623;53.632;10.016;2023-01-28T04:04:14;6.05;;;2.80;;
29712;SDS011;16623;53.632;10.016;2023-01-28T04:06:48;8.25;;;3.13;;
29712;SDS011;16623;53.632;10.016;2023-01-28T04:09:16;6.95;;;2.97;;
29712;SDS011;16623;53.632;10.016;2023-01-28T04:11:42;3.97;;;2.53;;
29712;SDS011;16623;53.632;10.016;2023-01-28T04:14:07;3.85;;;2.55;;
29712;SDS011;16623;53.632;10.016;2023-01-28T04:16:33;7.45;;;3.45;;
29712;SDS011;16623;53.632;10.016;2023-01-28T04:18:59;7.13;;;4.03;;
29712;SDS011;16623;53.632;10.016;2023-01-28T04:21:24;7.90;;;3.90;;
29712;SDS011;16623;53.632;10.016;2023-01-28T04:23:50;8.85;;;3.78;;
29712;SDS011;16623;53.632;10.016;2023-01-28T04:26:15;8.77;;;3.58;;
29712;SDS011;16623;53.632;10.016;2023-01-28T04:28:42;6.20;;;3.78;;
29712;SDS011;16623;53.632;10.016;2023-01-28T04:31:07;8.13;;;3.97;;
29712;SDS011;16623;53.632;10.016;2023-01-28T04:33:33;7.32;;;3.63;;
29712;SDS011;16623;53.632;10.016;2023-01-28T04:35:59;8.23;;;3.85;;
29712;SDS011;16623;53.632;10.016;2023-01-28T04:38:24;5.40;;;3.50;;
29712;SDS011;16623;53.632;10.016;2023-01-28T04:40:50;5.55;;;3.30;;
29712;SDS011;16623;53.632;10.016;2023-01-28T04:43:16;8.32;;;4.00;;
29712;SDS011;16623;53.632;10.016;2023-01-28T04:45:43;9.02;;;3.63;;
29712;SDS011;16623;53.632;10.016;2023-01-28T04:48:10;6.53;;;3.45;;
29712;SDS011;16623;53.632;10.016;2023-01-28T04:50:36;5.43;;;3.85;;
29712;SDS011;16623;53.632;10.016;2023-01-28T04:53:01;7.05;;;3.90;;
29712;SDS011;16623;53.632;10.016;2023-01-28T04:55:27;6.13;;;3.58;;
29712;SDS011;16623;53.632;10.016;2023-01-28T04:57:52;10.05;;;4.03;;
29712;SDS011;16623;53.632;10.016;2023-01-28T05:00:18;6.95;;;3.97;;
29712;SDS011;16623;53.632;10.016;2023-01-28T05:02:43;7.05;;;3.63;;
29712;SDS011;16623;53.632;10.016;2023-01-28T05:05:09;8.45;;;3.80;;
29712;SDS011;16623;53.632;10.016;2023-01-28T05:07:35;7.18;;;3.38;;
29712;SDS011;16623;53.632;10.016;2023-01-28T05:10:01;11.02;;;4.28;;
29712;SDS011;16623;53.632;10.016;2023-01-28T05:12:26;6.65;;;3.35;;
29712;SDS011;16623;53.632;10.016;2023-01-28T05:14:52;7.25;;;3.70;;
29712;SDS011;16623;53.632;10.016;2023-01-28T05:17:17;6.47;;;3.80;;
29712;SDS011;16623;53.632;10.016;2023-01-28T05:19:43;5.60;;;3.35;;
29712;SDS011;16623;53.632;10.016;2023-01-28T05:22:10;6.35;;;3.90;;
29712;SDS011;16623;53.632;10.016;2023-01-28T05:24:35;6.47;;;3.75;;
29712;SDS011;16623;53.632;10.016;2023-01-28T05:27:01;9.40;;;4.07;;
29712;SDS011;16623;53.632;10.016;2023-01-28T05:29:26;10.50;;;4.57;;
29712;SDS011;16623;53.632;10.016;2023-01-28T05:31:52;8.27;;;4.05;;
29712;SDS011;16623;53.632;10.016;2023-01-28T05:34:17;6.25;;;4.40;;
29712;SDS011;16623;53.632;10.016;2023-01-28T05:36:43;11.57;;;4.38;;
29712;SDS011;16623;53.632;10.016;2023-01-28T05:39:08;8.00;;;5.05;;
29712;SDS011;16623;53.632;10.016;2023-01-28T05:41:34;9.55;;;3.58;;
29712;SDS011;16623;53.632;10.016;2023-01-28T05:44:00;10.52;;;4.93;;
29712;SDS011;16623;53.632;10.016;2023-01-28T05:46:26;12.55;;;4.63;;
29712;SDS011;16623;53.632;10.016;2023-01-28T05:48:51;7.53;;;4.05;;
29712;SDS011;16623;53.632;10.016;2023-01-28T05:51:17;6.68;;;4.35;;
29712;SDS011;16623;53.632;10.016;2023-01-28T05:53:43;12.68;;;4.57;;
29712;SDS011;16623;53.632;10.016;2023-01-28T05:56:08;5.80;;;4.22;;
29712;SDS011;16623;53.632;10.016;2023-01-28T05:58:34;9.73;;;5.03;;
29712;SDS011;16623;53.632;10.016;2023-01-28T06:00:59;10.02;;;4.75;;
29712;SDS011;16623;53.632;10.016;2023-01-28T06:03:25;12.70;;;4.53;;
29712;SDS011;16623;53.632;10.016;2023-01-28T06:05:50;10.38;;;4.85;;
29712;SDS011;16623;53.632;10.016;2023-01-28T06:08:16;10.25;;;5.03;;
29712;SDS011;16623;53.632;10.016;2023-01-28T06:10:41;9.52;;;5.22;;
29712;SDS011;16623;53.632;10.016;2023-01-28T06:13:07;13.52;;;4.70;;
29712;SDS011;16623;53.632;10.016;2023-01-28T06:15:33;8.07;;;4.38;;
29712;SDS011;16623;53.632;10.016;2023-01-28T06:17:58;6.55;;;4.68;;
29712;SDS011;16623;53.632;10.016;2023-01-28T06:20:24;9.43;;;5.10;;
29712;SDS011;16623;53.632;10.016;2023-01-28T06:22:50;6.90;;;4.20;;
29712;SDS011;16623;53.632;10.016;2023-01-28T06:25:16;8.82;;;4.53;;
29712;SDS011;16623;53.632;10.016;2023-01-28T06:27:42;7.05;;;4.50;;
29712;SDS011;16623;53.632;10.016;2023-01-28T06:30:07;8.07;;;4.90;;
29712;SDS011;16623;53.632;10.016;2023-01-28T06:32:33;10.25;;;5.28;;
29712;SDS011;16623;53.632;10.016;2023-01-28T06:34:59;9.55;;;4.95;;
29712;SDS011;16623;53.632;10.016;2023-01-28T06:37:24;9.60;;;5.05;;
29712;SDS011;16623;53.632;10.016;2023-01-28T06:39:50;12.18;;;5.00;;
29712;SDS011;16623;53.632;10.016;2023-01-28T06:42:16;11.02;;;5.05;;
29712;SDS011;16623;53.632;10.016;2023-01-28T06:44:41;13.77;;;5.45;;
29712;SDS011;16623;53.632;10.016;2023-01-28T06:47:07;14.02;;;6.25;;
29712;SDS011;16623;53.632;10.016;2023-01-28T06:49:33;9.98;;;5.20;;
29712;SDS011;16623;53.632;10.016;2023-01-28T06:51:59;8.57;;;6.15;;
29712;SDS011;16623;53.632;10.016;2023-01-28T06:54:24;7.28;;;5.57;;
29712;SDS011;16623;53.632;10.016;2023-01-28T06:56:50;11.40;;;6.30;;
29712;SDS011;16623;53.632;10.016;2023-01-28T06:59:15;11.20;;;7.32;;
29712;SDS011;16623;53.632;10.016;2023-01-28T07:01:41;15.98;;;6.53;;
29712;SDS011;16623;53.632;10.016;2023-01-28T07:04:06;9.43;;;6.68;;
29712;SDS011;16623;53.632;10.016;2023-01-28T07:06:32;9.95;;;6.95;;
29712;SDS011;16623;53.632;10.016;2023-01-28T07:08:58;10.15;;;6.78;;
29712;SDS011;16623;53.632;10.016;2023-01-28T07:11:24;9.15;;;6.22;;
29712;SDS011;16623;53.632;10.016;2023-01-28T07:13:49;11.27;;;6.28;;
29712;SDS011;16623;53.632;10.016;2023-01-28T07:16:15;9.25;;;6.40;;
29712;SDS011;16623;53.632;10.016;2023-01-28T07:18:41;10.70;;;8.02;;
29712;SDS011;16623;53.632;10.016;2023-01-28T07:21:06;12.27;;;6.90;;
29712;SDS011;16623;53.632;10.016;2023-01-28T07:23:32;12.07;;;7.18;;
29712;SDS011;16623;53.632;10.016;2023-01-28T07:26:01;14.18;;;7.63;;
29712;SDS011;16623;53.632;10.016;2023-01-28T07:28:27;8.48;;;6.70;;
29712;SDS011;16623;53.632;10.016;2023-01-28T07:30:53;10.73;;;7.60;;
29712;SDS011;16623;53.632;10.016;2023-01-28T07:33:19;14.55;;;7.18;;
29712;SDS011;16623;53.632;10.016;2023-01-28T07:35:46;14.80;;;8.02;;
29712;SDS011;16623;53.632;10.016;2023-01-28T07:38:11;12.60;;;8.27;;
29712;SDS011;16623;53.632;10.016;2023-01-28T07:40:37;14.45;;;8.35;;
29712;SDS011;16623;53.632;10.016;2023-01-28T07:43:03;14.50;;;8.23;;
29712;SDS011;16623;53.632;10.016;2023-01-28T07:45:31;12.85;;;7.85;;
29712;SDS011;16623;53.632;10.016;2023-01-28T07:47:57;17.85;;;8.52;;
29712;SDS011;16623;53.632;10.016;2023-01-28T07:50:25;12.40;;;8.13;;
29712;SDS011;16623;53.632;10.016;2023-01-28T07:52:53;16.23;;;8.60;;
29712;SDS011;16623;53.632;10.016;2023-01-28T07:55:19;14.10;;;9.30;;
29712;SDS011;16623;53.632;10.016;2023-01-28T07:57:48;14.07;;;9.38;;
29712;SDS011;16623;53.632;10.016;2023-01-28T08:00:15;12.00;;;9.07;;
29712;SDS011;16623;53.632;10.016;2023-01-28T08:02:41;14.50;;;9.35;;
29712;SDS011;16623;53.632;10.016;2023-01-28T08:05:11;13.63;;;9.27;;
29712;SDS011;16623;53.632;10.016;2023-01-28T08:07:39;15.48;;;9.23;;
29712;SDS011;16623;53.632;10.016;2023-01-28T08:10:04;15.02;;;9.10;;
29712;SDS011;16623;53.632;10.016;2023-01-28T08:12:30;13.60;;;8.77;;
29712;SDS011;16623;53.632;10.016;2023-01-28T08:14:56;13.30;;;9.25;;
29712;SDS011;16623;53.632;10.016;2023-01-28T08:17:21;12.45;;;9.13;;
29712;SDS011;16623;53.632;10.016;2023-01-28T08:19:47;16.88;;;10.15;;
29712;SDS011;16623;53.632;10.016;2023-01-28T08:22:12;12.95;;;8.77;;
29712;SDS011;16623;53.632;10.016;2023-01-28T08:24:38;15.45;;;10.65;;
29712;SDS011;16623;53.632;10.016;2023-01-28T08:27:04;13.85;;;10.00;;
29712;SDS011;16623;53.632;10.016;2023-01-28T08:29:30;16.00;;;10.38;;
29712;SDS011;16623;53.632;10.016;2023-01-28T08:31:56;45.67;;;11.85;;
29712;SDS011;16623;53.632;10.016;2023-01-28T08:34:22;19.73;;;9.93;;
29712;SDS011;16623;53.632;10.016;2023-01-28T08:36:48;12.63;;;9.95;;
29712;SDS011;16623;53.632;10.016;2023-01-28T08:39:13;18.00;;;9.88;;
29712;SDS011;16623;53.632;10.016;2023-01-28T08:41:39;13.48;;;10.30;;
29712;SDS011;16623;53.632;10.016;2023-01-28T08:44:04;17.10;;;10.88;;
29712;SDS011;16623;53.632;10.016;2023-01-28T08:46:30;15.43;;;10.40;;
29712;SDS011;16623;53.632;10.016;2023-01-28T08:48:56;15.57;;;9.63;;
29712;SDS011;16623;53.632;10.016;2023-01-28T08:51:22;12.40;;;8.95;;
29712;SDS011;16623;53.632;10.016;2023-01-28T08:53:48;17.80;;;10.80;;
29712;SDS011;16623;53.632;10.016;2023-01-28T08:56:13;18.25;;;9.50;;
29712;SDS011;16623;53.632;10.016;2023-01-28T08:58:40;16.58;;;10.20;;
29712;SDS011;16623;53.632;10.016;2023-01-28T09:01:05;19.08;;;9.00;;
29712;SDS011;16623;53.632;10.016;2023-01-28T09:03:31;17.98;;;10.20;;
29712;SDS011;16623;53.632;10.016;2023-01-28T09:06:00;15.02;;;10.10;;
29712;SDS011;16623;53.632;10.016;2023-01-28T09:08:27;14.50;;;9.68;;
29712;SDS011;16623;53.632;10.016;2023-01-28T09:10:54;14.70;;;9.70;;
29712;SDS011;16623;53.632;10.016;2023-01-28T09:13:23;14.40;;;9.18;;
29712;SDS011;16623;53.632;10.016;2023-01-28T09:15:49;14.77;;;8.98;;
29712;SDS011;16623;53.632;10.016;2023-01-28T09:18:16;12.75;;;9.27;;
29712;SDS011;16623;53.632;10.016;2023-01-28T09:20:42;12.57;;;9.13;;
29712;SDS011;16623;53.632;10.016;2023-01-28T09:23:08;12.38;;;8.23;;
29712;SDS011;16623;53.632;10.016;2023-01-28T09:25:34;12.75;;;9.25;;
29712;SDS011;16623;53.632;10.016;2023-01-28T09:28:00;13.75;;;8.13;;
29712;SDS011;16623;53.632;10.016;2023-01-28T09:30:26;14.88;;;9.00;;
29712;SDS011;16623;53.632;10.016;2023-01-28T09:32:52;10.35;;;8.18;;
29712;SDS011;16623;53.632;10.016;2023-01-28T09:35:19;14.77;;;8.80;;
29712;SDS011;16623;53.632;10.016;2023-01-28T09:37:45;13.57;;;7.30;;
29712;SDS011;16623;53.632;10.016;2023-01-28T09:40:13;11.77;;;7.65;;
29712;SDS011;16623;53.632;10.016;2023-01-28T09:45:35;15.50;;;7.70;;
29712;SDS011;16623;53.632;10.016;2023-01-28T09:48:09;11.80;;;8.00;;
29712;SDS011;16623;53.632;10.016;2023-01-28T09:50:41;14.90;;;9.70;;
29712;SDS011;16623;53.632;10.016;2023-01-28T09:55:43;10.88;;;7.47;;
29712;SDS011;16623;53.632;10.016;2023-01-28T09:58:12;13.85;;;7.70;;
29712;SDS011;16623;53.632;10.016;2023-01-28T10:06:21;11.07;;;7.28;;
29712;SDS011;16623;53.632;10.016;2023-01-28T10:17:06;10.25;;;6.78;;
29712;SDS011;16623;53.632;10.016;2023-01-28T10:22:24;11.63;;;7.30;;
29712;SDS011;16623;53.632;10.016;2023-01-28T10:24:57;10.80;;;7.07;;
29712;SDS011;16623;53.632;10.016;2023-01-28T10:27:30;12.18;;;7.53;;
29712;SDS011;16623;53.632;10.016;2023-01-28T10:29:57;11.77;;;7.00;;
29712;SDS011;16623;53.632;10.016;2023-01-28T10:32:33;10.40;;;6.78;;
29712;SDS011;16623;53.632;10.016;2023-01-28T10:35:06;10.13;;;6.85;;
29712;SDS011;16623;53.632;10.016;2023-01-28T10:37:34;15.18;;;7.47;;
29712;SDS011;16623;53.632;10.016;2023-01-28T10:40:01;9.80;;;7.40;;
29712;SDS011;16623;53.632;10.016;2023-01-28T10:42:29;14.68;;;7.38;;
29712;SDS011;16623;53.632;10.016;2023-01-28T10:47:40;11.20;;;7.30;;
29712;SDS011;16623;53.632;10.016;2023-01-28T10:50:30;9.43;;;7.35;;
29712;SDS011;16623;53.632;10.016;2023-01-28T10:53:03;10.57;;;7.27;;
29712;SDS011;16623;53.632;10.016;2023-01-28T10:57:59;13.32;;;7.45;;
29712;SDS011;16623;53.632;10.016;2023-01-28T11:00:27;12.00;;;7.47;;
29712;SDS011;16623;53.632;10.016;2023-01-28T11:02:57;11.82;;;7.53;;
29712;SDS011;16623;53.632;10.016;2023-01-28T11:05:27;10.10;;;7.55;;
29712;SDS011;16623;53.632;10.016;2023-01-28T11:08:13;11.20;;;8.00;;
29712;SDS011;16623;53.632;10.016;2023-01-28T11:10:41;16.08;;;8.27;;
29712;SDS011;16623;53.632;10.016;2023-01-28T11:13:15;13.32;;;7.00;;
29712;SDS011;16623;53.632;10.016;2023-01-28T11:15:46;14.98;;;8.73;;
29712;SDS011;16623;53.632;10.016;2023-01-28T11:18:17;11.75;;;7.65;;
29712;SDS011;16623;53.632;10.016;2023-01-28T11:20:53;12.73;;;7.45;;
29712;SDS011;16623;53.632;10.016;2023-01-28T11:23:23;10.23;;;7.90;;
29712;SDS011;16623;53.632;10.016;2023-01-28T11:28:39;12.48;;;7.85;;
29712;SDS011;16623;53.632;10.016;2023-01-28T11:31:06;15.73;;;9.45;;
29712;SDS011;16623;53.632;10.016;2023-01-28T11:33:37;11.07;;;8.38;;
29712;SDS011;16623;53.632;10.016;2023-01-28T11:38:50;14.25;;;8.10;;
29712;SDS011;16623;53.632;10.016;2023-01-28T11:41:26;15.35;;;9.57;;
29712;SDS011;16623;53.632;10.016;2023-01-28T11:43:54;14.52;;;8.90;;
29712;SDS011;16623;53.632;10.016;2023-01-28T11:46:27;17.27;;;9.40;;
29712;SDS011;16623;53.632;10.016;2023-01-28T11:52:22;13.70;;;9.67;;
29712;SDS011;16623;53.632;10.016;2023-01-28T12:01:23;14.15;;;10.23;;
29712;SDS011;16623;53.632;10.016;2023-01-28T12:09:22;18.35;;;9.32;;
29712;SDS011;16623;53.632;10.016;2023-01-28T12:20:27;18.40;;;10.55;;
29712;SDS011;16623;53.632;10.016;2023-01-28T12:23:12;19.02;;;11.60;;
29712;SDS011;16623;53.632;10.016;2023-01-28T12:26:15;17.13;;;10.15;;
29712;SDS011;16623;53.632;10.016;2023-01-28T12:28:56;16.33;;;9.68;;
29712;SDS011;16623;53.632;10.016;2023-01-28T12:39:51;14.38;;;9.60;;
29712;SDS011;16623;53.632;10.016;2023-01-28T12:45:18;16.47;;;10.20;;
29712;SDS011;16623;53.632;10.016;2023-01-28T12:47:50;14.02;;;10.45;;
29712;SDS011;16623;53.632;10.016;2023-01-28T12:50:22;18.20;;;10.38;;
29712;SDS011;16623;53.632;10.016;2023-01-28T12:52:53;14.05;;;9.75;;
29712;SDS011;16623;53.632;10.016;2023-01-28T12:57:47;13.23;;;10.18;;
29712;SDS011;16623;53.632;10.016;2023-01-28T13:00:31;15.70;;;11.27;;
29712;SDS011;16623;53.632;10.016;2023-01-28T13:06:31;17.58;;;11.00;;
29712;SDS011;16623;53.632;10.016;2023-01-28T13:09:08;23.25;;;11.98;;
29712;SDS011;16623;53.632;10.016;2023-01-28T13:11:40;12.70;;;10.38;;
29712;SDS011;16623;53.632;10.016;2023-01-28T13:14:06;15.95;;;11.93;;
29712;SDS011;16623;53.632;10.016;2023-01-28T13:16:36;15.52;;;11.73;;
29712;SDS011;16623;53.632;10.016;2023-01-28T13:21:42;18.63;;;13.10;;
29712;SDS011;16623;53.632;10.016;2023-01-28T13:26:40;16.90;;;12.07;;
29712;SDS011;16623;53.632;10.016;2023-01-28T13:31:45;22.50;;;12.85;;
29712;SDS011;16623;53.632;10.016;2023-01-28T13:37:03;17.08;;;11.85;;
29712;SDS011;16623;53.632;10.016;2023-01-28T13:39:50;16.70;;;12.27;;
29712;SDS011;16623;53.632;10.016;2023-01-28T13:42:21;19.30;;;12.43;;
29712;SDS011;16623;53.632;10.016;2023-01-28T13:44:51;17.42;;;12.52;;
29712;SDS011;16623;53.632;10.016;2023-01-28T13:47:30;27.00;;;13.32;;
29712;SDS011;16623;53.632;10.016;2023-01-28T13:50:00;20.10;;;13.50;;
29712;SDS011;16623;53.632;10.016;2023-01-28T13:52:29;18.88;;;12.57;;
29712;SDS011;16623;53.632;10.016;2023-01-28T13:55:02;17.98;;;12.32;;
29712;SDS011;16623;53.632;10.016;2023-01-28T13:57:43;18.13;;;12.80;;
29712;SDS011;16623;53.632;10.016;2023-01-28T14:03:13;24.17;;;13.68;;
29712;SDS011;16623;53.632;10.016;2023-01-28T14:05:55;24.25;;;14.27;;
29712;SDS011;16623;53.632;10.016;2023-01-28T14:17:42;20.58;;;11.82;;
29712;SDS011;16623;53.632;10.016;2023-01-28T14:20:31;25.50;;;14.20;;
29712;SDS011;16623;53.632;10.016;2023-01-28T14:23:02;19.92;;;14.38;;
29712;SDS011;16623;53.632;10.016;2023-01-28T14:25:49;25.58;;;16.52;;
29712;SDS011;16623;53.632;10.016;2023-01-28T14:28:38;25.85;;;15.52;;
29712;SDS011;16623;53.632;10.016;2023-01-28T14:31:23;24.15;;;14.60;;
29712;SDS011;16623;53.632;10.016;2023-01-28T14:33:53;25.10;;;14.55;;
29712;SDS011;16623;53.632;10.016;2023-01-28T14:36:22;22.70;;;14.00;;
29712;SDS011;16623;53.632;10.016;2023-01-28T14:38:48;24.52;;;14.00;;
29712;SDS011;16623;53.632;10.016;2023-01-28T14:41:20;22.35;;;15.15;;
29712;SDS011;16623;53.632;10.016;2023-01-28T14:43:49;24.15;;;14.30;;
29712;SDS011;16623;53.632;10.016;2023-01-28T14:49:22;18.88;;;13.43;;
29712;SDS011;16623;53.632;10.016;2023-01-28T14:52:23;20.60;;;13.30;;
29712;SDS011;16623;53.632;10.016;2023-01-28T14:55:32;19.80;;;12.07;;
29712;SDS011;16623;53.632;10.016;2023-01-28T14:58:17;19.88;;;13.50;;
29712;SDS011;16623;53.632;10.016;2023-01-28T15:00:54;18.35;;;14.02;;
29712;SDS011;16623;53.632;10.016;2023-01-28T15:03:24;20.58;;;14.38;;
29712;SDS011;16623;53.632;10.016;2023-01-28T15:08:44;23.33;;;14.10;;
29712;SDS011;16623;53.632;10.016;2023-01-28T15:11:12;18.73;;;13.40;;
29712;SDS011;16623;53.632;10.016;2023-01-28T15:13:42;18.33;;;13.05;;
29712;SDS011;16623;53.632;10.016;2023-01-28T15:16:17;21.60;;;14.18;;
29712;SDS011;16623;53.632;10.016;2023-01-28T15:18:45;22.23;;;13.55;;
29712;SDS011;16623;53.632;10.016;2023-01-28T15:21:12;17.42;;;12.25;;
29712;SDS011;16623;53.632;10.016;2023-01-28T15:23:39;21.67;;;13.95;;
29712;SDS011;16623;53.632;10.016;2023-01-28T15:26:14;22.65;;;12.65;;
29712;SDS011;16623;53.632;10.016;2023-01-28T15:28:43;19.65;;;13.02;;
29712;SDS011;16623;53.632;10.016;2023-01-28T15:31:17;21.67;;;14.00;;
29712;SDS011;16623;53.632;10.016;2023-01-28T15:33:45;22.25;;;13.13;;
29712;SDS011;16623;53.632;10.016;2023-01-28T15:36:19;19.27;;;13.20;;
29712;SDS011;16623;53.632;10.016;2023-01-28T15:38:44;19.98;;;12.38;;
29712;SDS011;16623;53.632;10.016;2023-01-28T15:41:10;27.25;;;12.90;;
29712;SDS011;16623;53.632;10.016;2023-01-28T15:43:36;19.50;;;13.38;;
29712;SDS011;16623;53.632;10.016;2023-01-28T15:46:02;23.73;;;13.27;;
29712;SDS011;16623;53.632;10.016;2023-01-28T15:48:34;22.52;;;12.73;;
29712;SDS011;16623;53.632;10.016;2023-01-28T15:51:06;21.83;;;12.68;;
29712;SDS011;16623;53.632;10.016;2023-01-28T15:53:44;24.00;;;14.05;;
29712;SDS011;16623;53.632;10.016;2023-01-28T15:56:12;20.15;;;13.50;;
29712;SDS011;16623;53.632;10.016;2023-01-28T15:58:39;24.75;;;15.30;;
29712;SDS011;16623;53.632;10.016;2023-01-28T16:03:32;24.77;;;14.63;;
29712;SDS011;16623;53.632;10.016;2023-01-28T16:06:01;25.20;;;13.88;;
29712;SDS011;16623;53.632;10.016;2023-01-28T16:11:11;22.13;;;13.27;;
29712;SDS011;16623;53.632;10.016;2023-01-28T16:13:44;21.45;;;12.95;;
29712;SDS011;16623;53.632;10.016;2023-01-28T16:16:10;21.80;;;13.63;;
29712;SDS011;16623;53.632;10.016;2023-01-28T16:18:37;18.45;;;13.02;;
29712;SDS011;16623;53.632;10.016;2023-01-28T16:21:21;20.33;;;13.40;;
29712;SDS011;16623;53.632;10.016;2023-01-28T16:23:52;22.58;;;13.88;;
29712;SDS011;16623;53.632;10.016;2023-01-28T16:26:25;20.05;;;13.50;;
29712;SDS011;16623;53.632;10.016;2023-01-28T16:28:51;21.35;;;13.57;;
29712;SDS011;16623;53.632;10.016;2023-01-28T16:31:17;21.77;;;13.80;;
29712;SDS011;16623;53.632;10.016;2023-01-28T16:33:43;25.80;;;13.40;;
29712;SDS011;16623;53.632;10.016;2023-01-28T16:36:10;23.55;;;13.45;;
29712;SDS011;16623;53.632;10.016;2023-01-28T16:38:37;24.42;;;14.32;;
29712;SDS011;16623;53.632;10.016;2023-01-28T16:41:03;25.85;;;13.57;;
29712;SDS011;16623;53.632;10.016;2023-01-28T16:43:28;24.38;;;14.18;;